createdAt,value
2018-03-17T00:01:17.467Z,10.77
2018-03-17T00:03:46.115Z,9.15
2018-03-17T00:06:15.532Z,6.80
2018-03-17T00:08:44.221Z,10.52
2018-03-17T00:11:12.784Z,9.77
2018-03-17T00:13:42.281Z,8.40
2018-03-17T00:16:10.339Z,6.90
2018-03-17T00:18:38.983Z,8.18
2018-03-17T00:21:08.254Z,8.97
2018-03-17T00:23:36.626Z,12.75
2018-03-17T00:26:05.622Z,10.10
2018-03-17T00:28:34.020Z,7.33
2018-03-17T00:31:02.432Z,11.23
2018-03-17T00:33:31.572Z,10.43
2018-03-17T00:36:00.238Z,10.20
2018-03-17T00:38:28.896Z,7.15
2018-03-17T00:40:58.146Z,10.30
2018-03-17T00:43:26.603Z,6.87
2018-03-17T00:45:56.040Z,10.50
2018-03-17T00:48:24.666Z,7.03
2018-03-17T00:50:53.258Z,7.07
2018-03-17T00:53:21.630Z,9.57
2018-03-17T00:55:49.999Z,8.63
2018-03-17T00:58:18.435Z,7.70
2018-03-17T01:00:46.809Z,9.70
2018-03-17T01:03:14.857Z,9.00
2018-03-17T01:05:44.267Z,7.07
2018-03-17T01:08:13.677Z,8.80
2018-03-17T01:10:42.065Z,8.60
2018-03-17T01:13:10.539Z,12.82
2018-03-17T01:15:39.245Z,8.07
2018-03-17T01:18:07.630Z,7.60
2018-03-17T01:20:36.267Z,8.20
2018-03-17T01:23:04.742Z,15.20
2018-03-17T01:25:33.161Z,7.50
2018-03-17T01:28:01.698Z,7.10
2018-03-17T01:30:30.070Z,9.23
2018-03-17T01:32:58.766Z,7.50
2018-03-17T01:35:27.353Z,8.40
2018-03-17T01:37:55.729Z,8.90
2018-03-17T01:40:24.938Z,6.97
2018-03-17T01:42:53.322Z,10.47
2018-03-17T01:45:21.702Z,15.40
2018-03-17T01:47:50.768Z,9.90
2018-03-17T01:50:20.106Z,9.70
2018-03-17T01:52:48.774Z,7.50
2018-03-17T01:55:17.860Z,8.93
2018-03-17T01:57:46.234Z,6.63
2018-03-17T02:00:15.851Z,9.03
2018-03-17T02:02:44.530Z,9.13
2018-03-17T02:05:13.220Z,9.30
2018-03-17T02:07:41.874Z,7.70
2018-03-17T02:10:10.449Z,8.67
2018-03-17T02:12:39.789Z,7.17
2018-03-17T02:15:08.166Z,8.87
2018-03-17T02:17:36.869Z,9.57
2018-03-17T02:20:05.730Z,11.60
2018-03-17T02:22:34.434Z,10.65
2018-03-17T02:25:03.118Z,10.43
2018-03-17T02:27:31.504Z,10.00
2018-03-17T02:30:00.995Z,7.30
2018-03-17T02:32:29.574Z,5.30
2018-03-17T02:34:57.962Z,6.80
2018-03-17T02:37:26.333Z,8.23
2018-03-17T02:39:54.942Z,7.63
2018-03-17T02:42:23.619Z,8.70
2018-03-17T02:44:52.282Z,9.68
2018-03-17T02:47:20.917Z,7.72
2018-03-17T02:49:49.578Z,6.60
2018-03-17T02:52:18.023Z,9.37
2018-03-17T02:54:47.226Z,9.33
2018-03-17T02:57:15.692Z,12.37
2018-03-17T02:59:45.102Z,9.27
2018-03-17T03:02:13.873Z,12.55
2018-03-17T03:04:43.291Z,8.57
2018-03-17T03:07:11.990Z,6.60
2018-03-17T03:09:40.361Z,9.10
2018-03-17T03:12:08.857Z,9.10
2018-03-17T03:14:37.235Z,7.83
2018-03-17T03:17:06.429Z,9.67
2018-03-17T03:19:35.177Z,5.97
2018-03-17T03:22:03.875Z,6.68
2018-03-17T03:24:32.256Z,8.67
2018-03-17T03:27:00.939Z,7.33
2018-03-17T03:29:29.554Z,8.90
2018-03-17T03:31:57.944Z,5.97
2018-03-17T03:34:26.586Z,6.10
2018-03-17T03:36:55.998Z,9.30
2018-03-17T03:39:24.606Z,11.50
2018-03-17T03:41:53.242Z,9.67
2018-03-17T03:44:21.752Z,8.80
2018-03-17T03:46:50.138Z,6.27
2018-03-17T03:49:18.556Z,8.23
2018-03-17T03:51:47.534Z,6.47
2018-03-17T03:54:15.986Z,5.77
2018-03-17T03:56:44.426Z,8.87
2018-03-17T03:59:12.813Z,7.80
2018-03-17T04:01:41.199Z,10.87
2018-03-17T04:04:10.662Z,7.90
2018-03-17T04:06:39.001Z,6.33
2018-03-17T04:09:07.407Z,7.17
2018-03-17T04:11:36.550Z,7.83
2018-03-17T04:14:05.974Z,7.22
2018-03-17T04:16:34.311Z,9.13
2018-03-17T04:19:02.895Z,7.23
2018-03-17T04:21:31.093Z,6.80
2018-03-17T04:23:59.466Z,7.40
2018-03-17T04:26:28.757Z,7.00
2018-03-17T04:28:57.143Z,11.67
2018-03-17T04:31:25.553Z,6.03
2018-03-17T04:33:53.991Z,8.20
2018-03-17T04:36:22.494Z,8.20
2018-03-17T04:38:50.538Z,9.10
2018-03-17T04:41:20.106Z,7.60
2018-03-17T04:43:49.255Z,9.33
2018-03-17T04:46:17.904Z,6.53
2018-03-17T04:48:46.546Z,6.53
2018-03-17T04:51:14.946Z,6.20
2018-03-17T04:53:44.176Z,6.20
2018-03-17T04:56:12.810Z,10.37
2018-03-17T04:58:41.178Z,7.60
2018-03-17T05:01:10.558Z,6.70
2018-03-17T05:03:38.737Z,9.57
2018-03-17T05:06:07.439Z,6.70
2018-03-17T05:08:35.878Z,7.87
2018-03-17T05:11:04.962Z,9.40
2018-03-17T05:13:33.357Z,9.10
2018-03-17T05:16:02.570Z,10.13
2018-03-17T05:18:30.962Z,8.80
2018-03-17T05:20:59.621Z,9.82
2018-03-17T05:23:28.003Z,10.30
2018-03-17T05:25:56.671Z,10.67
2018-03-17T05:28:25.049Z,10.03
2018-03-17T05:30:53.431Z,8.60
2018-03-17T05:33:22.837Z,8.43
2018-03-17T05:35:52.259Z,12.67
2018-03-17T05:38:20.564Z,10.30
2018-03-17T05:40:49.186Z,8.67
2018-03-17T05:43:17.823Z,9.40
2018-03-17T05:45:46.483Z,21.83
2018-03-17T05:48:14.871Z,11.53
2018-03-17T05:50:43.530Z,11.27
2018-03-17T05:53:11.918Z,19.93
2018-03-17T05:55:40.296Z,18.30
2018-03-17T05:58:08.891Z,22.10
2018-03-17T06:00:37.430Z,20.90
2018-03-17T06:03:06.099Z,28.53
2018-03-17T06:05:34.762Z,29.77
2018-03-17T06:08:04.250Z,32.20
2018-03-17T06:10:33.730Z,28.17
2018-03-17T06:13:02.406Z,28.65
2018-03-17T06:15:47.454Z,24.37
2018-03-17T06:18:15.947Z,32.83
2018-03-17T06:20:45.184Z,24.90
2018-03-17T06:23:13.778Z,24.27
2018-03-17T06:25:42.168Z,29.33
2018-03-17T06:28:10.602Z,27.33
2018-03-17T06:30:39.254Z,22.17
2018-03-17T06:33:07.818Z,19.73
2018-03-17T06:35:36.990Z,26.80
2018-03-17T06:38:05.602Z,19.70
2018-03-17T06:40:34.067Z,21.33
2018-03-17T06:43:02.850Z,21.07
2018-03-17T06:45:31.586Z,27.60
2018-03-17T06:48:01.196Z,18.43
2018-03-17T06:50:29.613Z,23.00
2018-03-17T06:52:58.249Z,42.83
2018-03-17T06:55:27.138Z,28.17
2018-03-17T06:57:55.573Z,29.73
2018-03-17T07:00:23.969Z,30.03
2018-03-17T07:02:53.667Z,28.67
2018-03-17T07:05:23.694Z,30.62
2018-03-17T07:07:53.363Z,55.10
2018-03-17T07:10:21.780Z,31.63
2018-03-17T07:12:51.917Z,30.98
2018-03-17T07:15:20.209Z,25.33
2018-03-17T07:17:48.647Z,30.77
2018-03-17T07:20:17.223Z,28.25
2018-03-17T07:22:46.128Z,26.33
2018-03-17T07:25:16.061Z,30.65
2018-03-17T07:27:52.881Z,31.47
2018-03-17T07:30:22.547Z,27.03
2018-03-17T07:32:53.984Z,31.97
2018-03-17T07:35:22.650Z,45.07
2018-03-17T07:37:51.807Z,37.50
2018-03-17T07:40:20.513Z,38.28
2018-03-17T07:42:49.273Z,44.23
2018-03-17T07:45:18.820Z,49.60
2018-03-17T07:47:47.751Z,42.85
2018-03-17T07:50:16.465Z,40.70
2018-03-17T07:52:45.501Z,33.97
2018-03-17T07:55:14.823Z,46.87
2018-03-17T07:57:43.250Z,32.93
2018-03-17T08:00:11.927Z,36.78
2018-03-17T08:02:40.315Z,47.33
2018-03-17T08:05:08.859Z,36.63
2018-03-17T08:07:37.635Z,34.80
2018-03-17T08:10:05.697Z,32.70
2018-03-17T08:12:34.185Z,37.87
2018-03-17T08:15:03.321Z,37.22
2018-03-17T08:17:32.075Z,34.28
2018-03-17T08:20:01.027Z,40.53
2018-03-17T08:22:29.748Z,49.77
2018-03-17T08:24:59.186Z,35.35
2018-03-17T08:27:28.031Z,39.40
2018-03-17T08:29:57.673Z,33.10
2018-03-17T08:32:27.117Z,47.30
2018-03-17T08:34:56.606Z,45.90
2018-03-17T08:37:25.070Z,36.93
2018-03-17T08:39:53.823Z,41.23
2018-03-17T08:42:22.364Z,36.20
2018-03-17T08:44:55.096Z,36.67
2018-03-17T08:47:24.149Z,41.83
2018-03-17T08:49:53.441Z,43.37
2018-03-17T08:52:22.705Z,38.60
2018-03-17T08:54:51.355Z,34.87
2018-03-17T08:57:20.955Z,38.90
2018-03-17T08:59:49.227Z,41.20
2018-03-17T09:02:18.372Z,37.65
2018-03-17T09:04:46.770Z,34.13
2018-03-17T09:07:15.933Z,36.83
2018-03-17T09:09:44.777Z,47.23
2018-03-17T09:12:14.213Z,46.90
2018-03-17T09:14:42.882Z,35.15
2018-03-17T09:17:12.189Z,40.45
2018-03-17T09:19:41.167Z,35.25
2018-03-17T09:22:09.449Z,34.63
2018-03-17T09:24:38.431Z,38.90
2018-03-17T09:27:07.877Z,36.05
2018-03-17T09:29:36.494Z,29.77
2018-03-17T09:32:04.779Z,36.40
2018-03-17T09:34:33.180Z,38.63
2018-03-17T09:37:01.917Z,37.60
2018-03-17T09:39:30.577Z,32.63
2018-03-17T09:41:59.059Z,39.72
2018-03-17T09:44:27.763Z,35.87
2018-03-17T09:46:56.743Z,36.60
2018-03-17T09:49:25.399Z,34.23
2018-03-17T09:51:53.869Z,38.87
2018-03-17T09:54:22.390Z,44.23
2018-03-17T09:56:54.923Z,38.87
2018-03-17T09:59:23.316Z,50.93
2018-03-17T10:01:51.717Z,49.00
2018-03-17T10:04:20.091Z,45.17
2018-03-17T10:06:48.752Z,57.70
2018-03-17T10:09:17.159Z,53.20
2018-03-17T10:11:45.550Z,50.63
2018-03-17T10:14:14.190Z,52.70
2018-03-17T10:16:42.710Z,53.60
2018-03-17T10:19:11.402Z,60.28
2018-03-17T10:21:40.173Z,68.03
2018-03-17T10:24:10.120Z,61.27
2018-03-17T10:26:38.496Z,63.00
2018-03-17T10:29:07.278Z,60.15
2018-03-17T10:31:35.946Z,70.75
2018-03-17T10:34:04.068Z,67.00
2018-03-17T10:36:32.862Z,57.03
2018-03-17T10:39:01.538Z,66.70
2018-03-17T10:41:30.154Z,68.45
2018-03-17T10:43:59.196Z,70.45
2018-03-17T10:46:28.078Z,68.80
2018-03-17T10:48:56.687Z,76.50
2018-03-17T10:51:25.931Z,85.47
2018-03-17T10:53:54.494Z,78.30
2018-03-17T10:56:23.151Z,62.38
2018-03-17T10:58:52.423Z,77.27
2018-03-17T11:01:21.381Z,79.70
2018-03-17T11:03:50.177Z,69.80
2018-03-17T11:06:18.377Z,68.57
2018-03-17T11:08:47.001Z,73.30
2018-03-17T11:11:15.514Z,68.85
2018-03-17T11:13:44.281Z,71.05
2018-03-17T11:16:12.675Z,73.97
2018-03-17T11:18:41.375Z,76.10
2018-03-17T11:21:10.049Z,70.82
2018-03-17T11:23:38.442Z,84.40
2018-03-17T11:26:07.815Z,72.73
2018-03-17T11:28:36.216Z,80.87
2018-03-17T11:31:05.134Z,91.87
2018-03-17T11:33:33.626Z,72.85
2018-03-17T11:36:02.354Z,72.78
2018-03-17T11:38:31.018Z,74.47
2018-03-17T11:40:59.402Z,100.90
2018-03-17T11:43:27.788Z,75.00
2018-03-17T11:45:56.485Z,77.05
2018-03-17T11:48:24.858Z,73.77
2018-03-17T11:50:53.243Z,75.57
2018-03-17T11:53:21.914Z,74.87
2018-03-17T11:55:50.634Z,85.93
2018-03-17T11:58:19.413Z,70.10
2018-03-17T12:00:47.930Z,68.00
2018-03-17T12:03:17.376Z,69.30
2018-03-17T12:05:45.776Z,75.47
2018-03-17T12:08:14.437Z,58.17
2018-03-17T12:10:43.100Z,64.27
2018-03-17T12:13:11.570Z,63.53
2018-03-17T12:15:40.323Z,59.00
2018-03-17T12:18:08.929Z,62.90
2018-03-17T12:20:38.376Z,57.30
2018-03-17T12:23:06.854Z,70.43
2018-03-17T12:25:35.331Z,54.97
2018-03-17T12:28:03.725Z,69.27
2018-03-17T12:30:32.375Z,60.38
2018-03-17T12:33:01.075Z,63.00
2018-03-17T12:35:30.347Z,69.15
2018-03-17T12:37:59.093Z,71.10
2018-03-17T12:40:27.678Z,66.43
2018-03-17T12:42:58.064Z,68.40
2018-03-17T12:45:26.727Z,74.15
2018-03-17T12:47:55.263Z,62.93
2018-03-17T12:50:24.419Z,64.53
2018-03-17T12:52:53.094Z,66.53
2018-03-17T12:55:21.753Z,69.65
2018-03-17T12:57:51.098Z,72.78
2018-03-17T13:00:19.478Z,72.40
2018-03-17T13:02:47.940Z,61.57
2018-03-17T13:05:16.092Z,64.20
2018-03-17T13:07:44.544Z,62.70
2018-03-17T13:10:14.130Z,67.10
2018-03-17T13:12:42.765Z,56.63
2018-03-17T13:15:11.266Z,53.17
2018-03-17T13:17:40.094Z,53.03
2018-03-17T13:20:08.563Z,57.20
2018-03-17T13:22:48.457Z,48.28
2018-03-17T13:25:16.689Z,47.27
2018-03-17T13:27:56.524Z,46.97
2018-03-17T13:30:25.689Z,54.73
2018-03-17T13:32:59.857Z,48.80
2018-03-17T13:35:39.381Z,44.67
2018-03-17T13:38:07.843Z,44.10
2018-03-17T13:40:43.090Z,40.70
2018-03-17T13:43:11.980Z,46.03
2018-03-17T13:45:40.405Z,40.87
2018-03-17T13:48:08.961Z,40.47
2018-03-17T13:50:37.691Z,38.38
2018-03-17T13:53:05.804Z,35.67
2018-03-17T13:55:34.203Z,40.67
2018-03-17T13:58:02.695Z,43.40
2018-03-17T14:00:31.397Z,45.90
2018-03-17T14:02:59.791Z,36.83
2018-03-17T14:05:28.266Z,41.20
2018-03-17T14:07:57.038Z,37.55
2018-03-17T14:10:26.678Z,38.67
2018-03-17T14:12:55.224Z,37.67
2018-03-17T14:15:24.680Z,35.30
2018-03-17T14:17:54.150Z,33.43
2018-03-17T14:20:22.565Z,39.20
2018-03-17T14:22:51.399Z,33.90
2018-03-17T14:25:20.136Z,35.40
2018-03-17T14:27:48.802Z,39.10
2018-03-17T14:30:17.568Z,32.63
2018-03-17T14:32:47.252Z,39.83
2018-03-17T14:35:16.703Z,39.70
2018-03-17T14:37:45.309Z,32.40
2018-03-17T14:40:14.088Z,36.03
2018-03-17T14:42:42.738Z,36.23
2018-03-17T14:45:11.416Z,34.77
2018-03-17T14:47:40.840Z,43.43
2018-03-17T14:50:09.226Z,32.50
2018-03-17T14:52:38.075Z,33.35
2018-03-17T14:55:06.474Z,35.13
2018-03-17T14:57:34.978Z,40.93
2018-03-17T15:00:03.309Z,39.67
2018-03-17T15:02:31.722Z,38.13
2018-03-17T15:05:00.390Z,33.65
2018-03-17T15:07:29.306Z,37.75
2018-03-17T15:09:57.757Z,34.17
2018-03-17T15:12:27.409Z,45.40
2018-03-17T15:14:56.569Z,36.07
2018-03-17T15:17:25.082Z,33.70
2018-03-17T15:19:54.254Z,38.87
2018-03-17T15:22:23.532Z,36.00
2018-03-17T15:24:52.017Z,29.93
2018-03-17T15:27:20.481Z,30.90
2018-03-17T15:29:48.869Z,29.80
2018-03-17T15:32:17.365Z,29.50
2018-03-17T15:34:46.171Z,31.65
2018-03-17T15:37:14.959Z,33.60
2018-03-17T15:39:43.451Z,33.20
2018-03-17T15:42:12.111Z,33.00
2018-03-17T15:44:40.833Z,31.07
2018-03-17T15:47:09.663Z,31.12
2018-03-17T15:49:38.390Z,29.63
2018-03-17T15:52:07.015Z,33.40
2018-03-17T15:54:35.611Z,29.10
2018-03-17T15:57:03.939Z,32.17
2018-03-17T15:59:32.356Z,29.40
2018-03-17T16:02:01.115Z,36.67
2018-03-17T16:04:29.735Z,37.17
2018-03-17T16:06:58.205Z,30.27
2018-03-17T16:09:27.658Z,27.60
2018-03-17T16:11:56.040Z,28.93
2018-03-17T16:14:25.466Z,29.58
2018-03-17T16:16:54.014Z,29.33
2018-03-17T16:19:22.522Z,28.97
2018-03-17T16:21:50.910Z,25.87
2018-03-17T16:24:19.308Z,30.90
2018-03-17T16:26:48.026Z,31.80
2018-03-17T16:29:16.461Z,31.87
2018-03-17T16:31:44.896Z,25.07
2018-03-17T16:34:13.330Z,26.70
2018-03-17T16:36:42.767Z,26.87
2018-03-17T16:39:11.004Z,29.50
2018-03-17T16:41:39.428Z,28.93
2018-03-17T16:44:07.920Z,26.10
2018-03-17T16:46:36.143Z,30.58
2018-03-17T16:49:04.735Z,32.20
2018-03-17T16:51:33.131Z,26.30
2018-03-17T16:54:01.465Z,29.73
2018-03-17T16:56:30.553Z,28.07
2018-03-17T16:58:59.218Z,33.47
2018-03-17T17:01:27.925Z,34.83
2018-03-17T17:03:56.305Z,38.17
2018-03-17T17:06:24.717Z,36.37
2018-03-17T17:08:53.110Z,28.80
2018-03-17T17:11:21.816Z,36.77
2018-03-17T17:13:50.724Z,33.28
2018-03-17T17:16:19.491Z,29.40
2018-03-17T17:18:49.243Z,29.70
2018-03-17T17:21:17.669Z,28.90
2018-03-17T17:23:46.237Z,35.37
2018-03-17T17:26:14.945Z,32.40
2018-03-17T17:28:43.441Z,31.33
2018-03-17T17:31:12.122Z,34.60
2018-03-17T17:33:40.703Z,37.53
2018-03-17T17:36:09.596Z,35.80
2018-03-17T17:38:38.146Z,30.70
2018-03-17T17:41:06.813Z,28.90
2018-03-17T17:43:35.416Z,32.30
2018-03-17T17:46:03.887Z,31.40
2018-03-17T17:48:32.562Z,31.70
2018-03-17T17:51:01.228Z,33.40
2018-03-17T17:53:29.770Z,32.70
2018-03-17T17:55:58.309Z,32.30
2018-03-17T17:58:26.726Z,31.67
2018-03-17T18:00:56.176Z,36.10
2018-03-17T18:03:24.653Z,35.93
2018-03-17T18:05:54.878Z,48.53
2018-03-17T18:08:24.386Z,28.97
2018-03-17T18:10:53.057Z,31.77
2018-03-17T18:13:22.900Z,34.30
2018-03-17T18:15:51.589Z,32.37
2018-03-17T18:18:19.988Z,29.10
2018-03-17T18:20:49.542Z,33.70
2018-03-17T18:23:18.991Z,31.77
2018-03-17T18:25:47.705Z,33.72
2018-03-17T18:28:16.378Z,32.17
2018-03-17T18:30:44.594Z,34.80
2018-03-17T18:33:14.664Z,27.55
2018-03-17T18:35:43.592Z,36.00
2018-03-17T18:38:13.212Z,37.00
2018-03-17T18:40:41.610Z,35.27
2018-03-17T18:43:10.060Z,40.92
2018-03-17T18:45:38.438Z,40.03
2018-03-17T18:48:07.891Z,35.08
2018-03-17T18:50:36.516Z,33.72
2018-03-17T18:53:05.029Z,34.93
2018-03-17T18:55:33.829Z,37.07
2018-03-17T18:58:02.585Z,34.28
2018-03-17T19:00:31.009Z,37.57
2018-03-17T19:03:02.818Z,38.40
2018-03-17T19:05:31.549Z,36.20
2018-03-17T19:08:01.458Z,49.77
2018-03-17T19:10:30.512Z,38.33
2018-03-17T19:12:59.049Z,34.23
2018-03-17T19:15:28.237Z,41.20
2018-03-17T19:17:57.718Z,36.15
2018-03-17T19:20:26.183Z,39.07
2018-03-17T19:22:55.801Z,36.35
2018-03-17T19:25:24.495Z,31.12
2018-03-17T19:27:52.910Z,39.87
2018-03-17T19:30:22.074Z,36.20
2018-03-17T19:32:50.465Z,36.10
2018-03-17T19:35:19.568Z,36.97
2018-03-17T19:37:49.053Z,39.87
2018-03-17T19:40:17.808Z,37.33
2018-03-17T19:42:47.379Z,39.53
2018-03-17T19:45:16.087Z,32.87
2018-03-17T19:47:44.655Z,37.60
2018-03-17T19:50:14.177Z,34.42
2018-03-17T19:52:43.616Z,30.98
2018-03-17T19:55:12.283Z,40.38
2018-03-17T19:57:40.866Z,37.70
2018-03-17T20:00:09.330Z,46.47
2018-03-17T20:02:38.009Z,35.92
2018-03-17T20:05:06.247Z,33.23
2018-03-17T20:07:34.907Z,27.53
2018-03-17T20:10:03.259Z,29.25
2018-03-17T20:12:31.647Z,36.60
2018-03-17T20:15:00.307Z,34.60
2018-03-17T20:17:30.938Z,36.83
2018-03-17T20:19:59.199Z,42.67
2018-03-17T20:22:27.863Z,34.25
2018-03-17T20:24:56.206Z,38.90
2018-03-17T20:27:24.594Z,33.60
2018-03-17T20:29:53.382Z,37.92
2018-03-17T20:32:22.878Z,38.60
2018-03-17T20:34:51.545Z,39.60
2018-03-17T20:37:20.593Z,36.00
2018-03-17T20:39:49.351Z,35.43
2018-03-17T20:42:18.137Z,33.10
2018-03-17T20:44:46.912Z,39.57
2018-03-17T20:47:15.330Z,36.87
2018-03-17T20:49:43.739Z,45.87
2018-03-17T20:52:13.327Z,40.20
2018-03-17T20:54:42.028Z,40.67
2018-03-17T20:57:10.686Z,42.20
2018-03-17T20:59:39.346Z,41.95
2018-03-17T21:02:07.900Z,41.03
2018-03-17T21:04:36.685Z,37.97
2018-03-17T21:07:05.521Z,44.63
2018-03-17T21:09:33.941Z,37.00
2018-03-17T21:12:02.321Z,32.93
2018-03-17T21:14:30.719Z,41.57
2018-03-17T21:16:58.907Z,40.10
2018-03-17T21:19:27.463Z,39.37
2018-03-17T21:21:55.857Z,40.47
2018-03-17T21:24:24.578Z,41.72
2018-03-17T21:26:54.110Z,36.63
2018-03-17T21:29:22.823Z,38.15
2018-03-17T21:31:51.303Z,49.27
2018-03-17T21:34:19.967Z,43.35
2018-03-17T21:36:48.644Z,44.13
2018-03-17T21:39:17.979Z,43.77
2018-03-17T21:41:46.367Z,37.70
2018-03-17T21:44:15.031Z,41.83
2018-03-17T21:46:44.446Z,47.87
2018-03-17T21:49:12.934Z,49.40
2018-03-17T21:51:41.347Z,41.33
2018-03-17T21:54:10.778Z,44.90
2018-03-17T21:56:39.166Z,38.40
2018-03-17T21:59:07.564Z,48.53
2018-03-17T22:01:35.962Z,45.50
2018-03-17T22:04:05.432Z,42.40
2018-03-17T22:06:34.078Z,45.70
2018-03-17T22:09:02.990Z,41.92
2018-03-17T22:11:31.974Z,45.42
2018-03-17T22:14:01.422Z,44.35
2018-03-17T22:16:31.010Z,51.45
2018-03-17T22:18:59.590Z,48.17
2018-03-17T22:21:30.046Z,45.30
2018-03-17T22:23:58.713Z,45.80
2018-03-17T22:26:27.894Z,45.97
2018-03-17T22:28:56.572Z,44.42
2018-03-17T22:31:24.973Z,46.40
2018-03-17T22:33:53.638Z,43.97
2018-03-17T22:36:22.312Z,41.72
2018-03-17T22:38:50.725Z,46.87
2018-03-17T22:41:19.888Z,47.50
2018-03-17T22:43:48.282Z,42.93
2018-03-17T22:46:16.768Z,41.10
2018-03-17T22:48:45.441Z,44.40
2018-03-17T22:51:14.059Z,48.20
2018-03-17T22:53:42.613Z,40.77
2018-03-17T22:56:10.997Z,47.47
2018-03-17T22:58:39.475Z,42.07
2018-03-17T23:01:07.935Z,42.57
2018-03-17T23:03:36.606Z,44.83
2018-03-17T23:06:05.018Z,43.57
2018-03-17T23:08:33.686Z,42.40
2018-03-17T23:11:03.100Z,45.73
2018-03-17T23:13:31.607Z,40.37
2018-03-17T23:15:59.994Z,43.40
2018-03-17T23:18:28.578Z,47.53
2018-03-17T23:20:57.235Z,39.60
2018-03-17T23:23:25.818Z,42.27
2018-03-17T23:25:54.207Z,45.13
2018-03-17T23:28:22.694Z,46.78
2018-03-17T23:30:51.361Z,42.93
2018-03-17T23:33:19.792Z,45.63
2018-03-17T23:35:48.455Z,49.47
2018-03-17T23:38:17.134Z,51.97
2018-03-17T23:40:45.610Z,49.85
2018-03-17T23:43:14.102Z,49.83
2018-03-17T23:45:42.445Z,41.80
2018-03-17T23:48:11.539Z,41.70
2018-03-17T23:50:40.105Z,41.07
2018-03-17T23:53:08.401Z,48.87
2018-03-17T23:55:36.904Z,39.90
2018-03-17T23:58:05.383Z,44.88
